Talitha — ZCAN7 — position and weather

sailwx.info

Track history (hours):
 
Tides and Currents Weather Stations Pressure Air Temp Water Temp Dewpoint Dewpoint Depression Visibility Wind Speed Wind Dir Waves Ship Positions

Talitha

Last reported at 2016-Sep-25 12:15 UTC. Time now 2016-Sep-25 15:49 UTC.
Position N 43°26' E 006°58'.

Length 80 m; draft 3.6 m.

Type: Pleasure craft. MMSI: 310051000.

Date/timePositionNaut miles runAvg speedWind from/ knotsBaromVisibWave heightAir tempDewpointWater temp
2016-Sep-25 12:15N 43°26' E 006°58'811.1
2016-Sep-25 11:33N 43°32' E 007°05'1 0.9
2016-Sep-25 10:33N 43°32' E 007°03'0 0.0
2016-Sep-25 09:33N 43°32' E 007°03'0 0.0
2016-Sep-25 07:33N 43°32' E 007°03'0 0.0
2016-Sep-25 04:33N 43°32' E 007°03'0 0.0
2016-Sep-25 00:33N 43°32' E 007°03'0 0.0
2016-Sep-24 22:33N 43°32' E 007°03'0 0.0
2016-Sep-24 21:21N 43°32' E 007°03'0 0.0
2016-Sep-24 19:33N 43°32' E 007°03'0 0.0
2016-Sep-24 18:32N 43°32' E 007°03'0 0.0
2016-Sep-24 17:32N 43°32' E 007°03'0 0.0
2016-Sep-24 16:32N 43°32' E 007°03'0 0.0
2016-Sep-24 14:32N 43°32' E 007°03'0 0.0
2016-Sep-24 12:26N 43°32' E 007°03'0 0.0
2016-Sep-24 10:32N 43°32' E 007°03'0 0.0
2016-Sep-24 09:26N 43°32' E 007°03'14 2.4
2016-Sep-24 03:28N 43°42' E 007°17'0 0.0
2016-Sep-24 02:28N 43°42' E 007°17'0 0.0
2016-Sep-24 00:28N 43°42' E 007°17'0 0.0
2016-Sep-23 19:28N 43°42' E 007°17'0 0.0
2016-Sep-23 17:22N 43°42' E 007°17'0 0.0
2016-Sep-23 16:16N 43°42' E 007°17'0 0.0
2016-Sep-23 15:16N 43°42' E 007°17'0 0.0
2016-Sep-23 06:31N 43°42' E 007°17'0 0.0
2016-Sep-23 04:30N 43°42' E 007°17'0 0.0
2016-Sep-23 03:30N 43°42' E 007°17'0 0.0
2016-Sep-23 02:24N 43°42' E 007°17'0 0.0
2016-Sep-23 01:30N 43°42' E 007°17'0 0.0
2016-Sep-23 00:30N 43°42' E 007°17'0 0.0
2016-Sep-22 23:30N 43°42' E 007°17'0 0.0
2016-Sep-22 20:30N 43°42' E 007°17'0 0.0
2016-Sep-22 12:30N 43°42' E 007°17'0 0.0
2016-Sep-22 03:31N 43°42' E 007°17'0 0.0
2016-Sep-22 00:31N 43°42' E 007°17'0 0.0
2016-Sep-21 23:31N 43°42' E 007°17'0 0.0
2016-Sep-21 22:31N 43°42' E 007°17'0 0.0
2016-Sep-21 19:31N 43°42' E 007°17'0 0.0
2016-Sep-21 16:07N 43°42' E 007°17'0 0.0
2016-Sep-21 03:30N 43°42' E 007°17'0 0.0
2016-Sep-21 02:06N 43°42' E 007°17'0 0.0
2016-Sep-20 17:30N 43°42' E 007°17'13 4.4
2016-Sep-20 14:33N 43°35' E 007°33'15912.7
2016-Sep-20 02:04N 42°43' E 010°58'  
2016-Sep-15 18:33N 42°44' E 010°29'  
Track history (hours):
 
Tides and Currents Weather Stations Pressure Air Temp Water Temp Dewpoint Dewpoint Depression Visibility Wind Speed Wind Dir Waves Ship Positions

Talitha

Last reported at 2016-Sep-25 12:15 UTC. Time now 2016-Sep-25 15:49 UTC.
Position N 43°26' E 006°58'.

Length 80 m; draft 3.6 m.

Type: Pleasure craft. MMSI: 310051000.

Date/timePositionNaut miles runAvg speedWind from/ knotsBaromVisibWave heightAir tempDewpointWater temp
2016-Sep-25 12:15N 43°26' E 006°58'811.1
2016-Sep-25 11:33N 43°32' E 007°05'1 0.9
2016-Sep-25 10:33N 43°32' E 007°03'0 0.0
2016-Sep-25 09:33N 43°32' E 007°03'0 0.0
2016-Sep-25 07:33N 43°32' E 007°03'0 0.0
2016-Sep-25 04:33N 43°32' E 007°03'0 0.0
2016-Sep-25 00:33N 43°32' E 007°03'0 0.0
2016-Sep-24 22:33N 43°32' E 007°03'0 0.0
2016-Sep-24 21:21N 43°32' E 007°03'0 0.0
2016-Sep-24 19:33N 43°32' E 007°03'0 0.0
2016-Sep-24 18:32N 43°32' E 007°03'0 0.0
2016-Sep-24 17:32N 43°32' E 007°03'0 0.0
2016-Sep-24 16:32N 43°32' E 007°03'0 0.0
2016-Sep-24 14:32N 43°32' E 007°03'0 0.0
2016-Sep-24 12:26N 43°32' E 007°03'0 0.0
2016-Sep-24 10:32N 43°32' E 007°03'0 0.0
2016-Sep-24 09:26N 43°32' E 007°03'14 2.4
2016-Sep-24 03:28N 43°42' E 007°17'0 0.0
2016-Sep-24 02:28N 43°42' E 007°17'0 0.0
2016-Sep-24 00:28N 43°42' E 007°17'0 0.0
2016-Sep-23 19:28N 43°42' E 007°17'0 0.0
2016-Sep-23 17:22N 43°42' E 007°17'0 0.0
2016-Sep-23 16:16N 43°42' E 007°17'0 0.0
2016-Sep-23 15:16N 43°42' E 007°17'0 0.0
2016-Sep-23 06:31N 43°42' E 007°17'0 0.0
2016-Sep-23 04:30N 43°42' E 007°17'0 0.0
2016-Sep-23 03:30N 43°42' E 007°17'0 0.0
2016-Sep-23 02:24N 43°42' E 007°17'0 0.0
2016-Sep-23 01:30N 43°42' E 007°17'0 0.0
2016-Sep-23 00:30N 43°42' E 007°17'0 0.0
2016-Sep-22 23:30N 43°42' E 007°17'0 0.0
2016-Sep-22 20:30N 43°42' E 007°17'0 0.0
2016-Sep-22 12:30N 43°42' E 007°17'0 0.0
2016-Sep-22 03:31N 43°42' E 007°17'0 0.0
2016-Sep-22 00:31N 43°42' E 007°17'0 0.0
2016-Sep-21 23:31N 43°42' E 007°17'0 0.0
2016-Sep-21 22:31N 43°42' E 007°17'0 0.0
2016-Sep-21 19:31N 43°42' E 007°17'0 0.0
2016-Sep-21 16:07N 43°42' E 007°17'0 0.0
2016-Sep-21 03:30N 43°42' E 007°17'0 0.0
2016-Sep-21 02:06N 43°42' E 007°17'0 0.0
2016-Sep-20 17:30N 43°42' E 007°17'13 4.4
2016-Sep-20 14:33N 43°35' E 007°33'15912.7
2016-Sep-20 02:04N 42°43' E 010°58'  
2016-Sep-15 18:33N 42°44' E 010°29'  

Dump ship's entire track history